Saint Charles, MO (63303)

1:42 PM CST on January 28, 2015 (GMT -0600)
Windwood,Nic S. | Change Station
CLOSE
Current Station
Personal Weather Station
Location: St. Peters, MO
Elevation: 604 ft
Nearby Weather Stations

Elev 604 ft 38.75 °N, 90.56 °W | Updated 14 minutes ago

Partly Cloudy
Partly Cloudy
47.3 °F
Feels Like 45 °F
N
5.8
Wind Variable Wind from West

Today
High -- | Low -- °F
--% Chance of Precip.
Yesterday
High -- | Low -- °F
Precip. -- in
7:11 AM 5:19 PM
Waxing Gibbous, 67% visible
Pressure 30.09 in
Visibility 10.0 miles
Clouds Scattered Clouds 20000 ft
Windchill 45 °F
Dew Point 32 °F
Humidity 55%
Rainfall 0.00 in
Snow Depth Not available.
UV 3 out of 12
Pollen .70 out of 12
Air Quality Not available.
Flu Activity Not available.
METAR KSUS 281854Z 16013G20KT 10SM SCT200 08/M02 A3008 RMK AO2 PRESFR SLP190 T00831017

More Conditions Fewer Conditions

Pressure 30.09 in
Visibility 10.0 miles
Clouds Scattered Clouds 20000 ft
Windchill 45 °F
Dew Point 32 °F
Humidity 55%
Rainfall 0.00 in
Snow Depth Not available.
UV 3 out of 12
Pollen .70 out of 12
Air Quality Not available.
Flu Activity Not available.
METAR KSUS 281854Z 16013G20KT 10SM SCT200 08/M02 A3008 RMK AO2 PRESFR SLP190 T00831017

More Conditions Fewer Conditions

10-Day Weather Forecast

Almanac

Astronomy

Jan. 28, 2015 Rise Set
Actual Time
Civil Twilight
Nautical Twilight
Astronomical Twilight
Moon
Length of Visible Light
Length of Day
Tomorrow will be .
, % of the Moon is Illuminated

Today's Extremes

State Highs State Lows

Community

WunderPhotos

Upload Photos

1,791,250 photos uploaded!

WunderBlogs® & News

Nearby

Air Quality

  Air Quality AQ Index Pollutant
Not available.

Snow Depth

Station Depth Elevation

Earthquake Activity

City Distance Mag. Time & Date
Minimum magnitude displayed is 2.5.

Coastal Water Temperatures

Place Temperature

Nearby Weather Stations